• Join FlightAware (Why Join?)
  • Login
  • US Flag 
01:19PM EST


 

Airport Tracker/Info


-or-


 

Live Flight TrackerFlight Track Log ✈ SWA864 ✈ 11-May-2013 ✈ KMDW - KDEN

Flight Track Log - Related Links

Times and Time Zones

All times are in EDT time to prevent confusion due to time zone crossing. See the SWA864 flight status page for this flight to view local times or setup timezone preferences in your user account.

Time Position Orientation Groundspeed Altitude Reporting Facility
EDT Latitude Longitude Course Direction KTS MPH feet Rate Location/Type
10:25AM 41.7667 -87.7833 264° West 151 174 2,100  Level Chicago TRACON
10:26AM 41.7667 -87.8500 270° West 214 246 3,900 1,080 Climbing Chicago TRACON
10:26AM 41.7611 -87.9017 262° West 217 250 3,900 360 Level Chicago Center
10:27AM 41.7578 -87.9883 267° West 230 265 4,500 2,160 Climbing Chicago Center
10:28AM 41.7533 -88.0775 266° West 239 275 8,400 3,480 Climbing Chicago Center
10:29AM 41.7597 -88.1675 275° West 250 288 11,700 2,340 Climbing Chicago Center
10:30AM 41.7357 -88.4698 264° West  Level FlightAware Approximate
10:30AM 41.7717 -88.2714 279° West 284 327 13,200  Level Chicago Center
10:31AM 41.7894 -88.4153 279° West 326 375 16,700 3,120 Climbing Chicago Center
10:32AM 41.8058 -88.5422 280° West 343 395 19,600 2,640 Climbing Chicago Center
10:33AM 41.8242 -88.6717 281° West 354 407 22,200 2,460 Climbing Chicago Center
10:34AM 41.8400 -88.8064 279° West 365 420 24,700 2,220 Climbing Chicago Center
10:35AM 41.8492 -88.9425 275° West 370 426 26,800 1,920 Climbing Chicago Center
10:36AM 41.8361 -89.0814 263° West 378 435 28,700 2,280 Climbing Chicago Center
10:37AM 41.8222 -89.2458 264° West 376 433 31,500 2,220 Climbing Chicago Center
10:38AM 41.8103 -89.3781 263° West 363 418 33,400 1,200 Climbing Chicago Center
10:39AM 41.7981 -89.5094 263° West 360 414 34,000 240 Climbing Chicago Center
10:40AM 41.7872 -89.6292 263° West 359 413 34,000  Level Chicago Center
10:42AM 41.7717 -89.7875 263° West 360 414 34,000  Level Chicago Center
10:43AM 41.7592 -89.9200 263° West 361 415 34,000 540 Level Chicago Center
10:44AM 41.7464 -90.0511 263° West 358 412 35,200 1,020 Climbing Chicago Center
10:45AM 41.7328 -90.1858 262° West 367 422 36,200 900 Climbing Chicago Center
10:46AM 41.7181 -90.3275 262° West 385 443 37,100 660 Climbing Chicago Center
10:47AM 41.7042 -90.4681 263° West 384 442 37,600 420 Climbing Chicago Center
10:48AM 41.6889 -90.6142 262° West 396 456 38,000 180 Climbing Chicago Center
10:49AM 41.6744 -90.7622 263° West 397 457 38,000  Level Chicago Center
10:50AM 41.6558 -90.9336 262° West 392 451 38,000  Level Chicago Center
10:51AM 41.6411 -91.0769 262° West 392 451 38,000  Level Chicago Center
10:52AM 41.6250 -91.2194 261° West 390 449 38,000  Level Chicago Center
10:53AM 41.6106 -91.3622 262° West 389 448 38,000  Level Chicago Center
10:54AM 41.5950 -91.5044 262° West 389 448 38,000  Level Chicago Center
10:55AM 41.5786 -91.6475 261° West 389 448 38,000  Level Chicago Center
10:56AM 41.5589 -91.8142 261° West 385 443 38,000  Level Chicago Center
10:57AM 41.5425 -91.9553 261° West 385 443 38,000  Level Chicago Center
10:58AM 41.5269 -92.0975 262° West 388 447 38,000  Level Chicago Center
10:59AM 41.5097 -92.2406 261° West 390 449 38,000  Level Chicago Center
11:00AM 41.4914 -92.3986 261° West 393 452 38,000  Level Chicago Center
11:01AM 41.4744 -92.5392 261° West 389 448 38,000  Level Chicago Center
11:02AM 41.4603 -92.6553 261° West 396 456 38,000  Level Minneapolis Center
11:03AM 41.4403 -92.8261 261° West 394 453 38,000  Level Minneapolis Center
11:04AM 41.4178 -92.9967 260° West 393 452 38,000  Level Minneapolis Center
11:05AM 41.4003 -93.1400 261° West 394 453 38,000  Level Minneapolis Center
11:06AM 41.3828 -93.2825 261° West 394 453 38,000  Level Minneapolis Center
11:07AM 41.3639 -93.4244 260° West 394 453 38,000  Level Minneapolis Center
11:08AM 41.3458 -93.5656 260° West 392 451 38,000  Level Minneapolis Center
11:09AM 41.3242 -93.7361 260° West 393 452 38,000  Level Minneapolis Center
11:10AM 41.3044 -93.8806 260° West 399 459 38,000  Level Minneapolis Center
11:11AM 41.2856 -94.0250 260° West 400 460 38,000  Level Minneapolis Center
11:12AM 41.2656 -94.1697 260° West 402 463 38,000  Level Minneapolis Center
11:13AM 41.2450 -94.3325 261° West 400 460 38,000  Level Minneapolis Center
11:14AM 41.2244 -94.4794 260° West 402 463 38,000  Level Minneapolis Center
11:15AM 41.2044 -94.6239 260° West 400 460 38,000  Level Minneapolis Center
11:16AM 41.1836 -94.7689 259° West 399 459 38,000  Level Minneapolis Center
11:17AM 41.1625 -94.9150 259° West 402 463 38,000  Level Minneapolis Center
11:18AM 41.1414 -95.0600 259° West 401 461 38,000  Level Minneapolis Center
11:20AM 41.1247 -95.1764 259° West 400 460 38,000  Level Minneapolis Center
11:21AM 41.0992 -95.3517 259° West 401 461 38,000  Level Minneapolis Center
11:22AM 41.0778 -95.5000 259° West 404 465 38,000  Level Minneapolis Center
11:23AM 41.0547 -95.6489 258° West 408 470 38,000  Level Minneapolis Center
11:24AM 41.0317 -95.7964 258° West 406 467 38,000  Level Minneapolis Center
11:25AM 41.0111 -95.9433 260° West 403 464 38,000  Level Minneapolis Center
11:26AM 40.9892 -96.0892 259° West 402 463 38,000  Level Minneapolis Center
11:27AM 40.9611 -96.2647 258° West 403 464 38,000  Level Minneapolis Center
11:28AM 40.9392 -96.4119 259° West 405 466 38,000  Level Minneapolis Center
11:29AM 40.9156 -96.5586 258° West 406 467 38,000  Level Minneapolis Center
11:30AM 40.8925 -96.7039 258° West 404 465 38,000  Level Minneapolis Center
11:31AM 40.8689 -96.8478 258° West 402 463 38,000  Level Minneapolis Center
11:32AM 40.8464 -96.9922 258° West 401 461 38,000  Level Minneapolis Center
11:33AM 40.8233 -97.1344 258° West 398 458 38,000  Level Minneapolis Center
11:34AM 40.8003 -97.2750 258° West 394 453 38,000  Level Minneapolis Center
11:35AM 40.7742 -97.4358 258° West 391 450 38,000  Level Minneapolis Center
11:36AM 40.7503 -97.5744 257° West 387 445 38,000  Level Minneapolis Center
11:37AM 40.7267 -97.7133 257° West 387 445 38,000  Level Minneapolis Center
11:38AM 40.7036 -97.8525 258° West 387 445 38,000  Level Minneapolis Center
11:39AM 40.6800 -97.9900 257° West 385 443 38,000  Level Minneapolis Center
11:40AM 40.6569 -98.1261 257° West 382 440 38,000  Level Minneapolis Center
11:41AM 40.6339 -98.2617 257° West 378 435 38,000  Level Minneapolis Center
11:42AM 40.6103 -98.3961 257° West 377 434 38,000  Level Minneapolis Center
11:43AM 40.6128 -98.5350 271° West 379 436 38,000  Level Minneapolis Center
11:44AM 40.6267 -98.6722 278° West 378 435 38,000  Level Minneapolis Center
11:45AM 40.6406 -98.8383 276° West 378 435 38,000  Level Minneapolis Center
11:46AM 40.6531 -98.9772 277° West 378 435 38,000  Level Minneapolis Center
11:47AM 40.6678 -99.1442 277° West 379 436 38,000  Level Minneapolis Center
11:48AM 40.6792 -99.2839 276° West 381 438 38,000  Level Minneapolis Center
11:49AM 40.6903 -99.4247 276° West 383 441 38,000  Level Denver Center
11:51AM 40.7025 -99.5653 277° West 383 441 38,000  Level Denver Center
11:52AM 40.7150 -99.7339 276° West 383 441 38,000  Level Denver Center
11:53AM 40.7264 -99.8711 276° West 385 443 38,000  Level Denver Center
11:54AM 40.7372 -100.0072 276° West 390 449 38,000  Level Denver Center
11:55AM 40.7497 -100.1658 276° West 392 451 38,000  Level Denver Center
11:56AM 40.7600 -100.3014 276° West 389 448 38,000  Level Denver Center
11:57AM 40.7722 -100.4608 276° West 392 451 38,000  Level Denver Center
11:58AM 40.7828 -100.5986 276° West 392 451 38,000  Level Denver Center
11:59AM 40.7700 -100.7425 263° West 411 473 38,000  Level Denver Center
12:00PM 40.7447 -100.9089 259° West 405 466 38,000  Level Denver Center
12:01PM 40.7225 -101.0481 258° West 406 467 38,000  Level Denver Center
12:02PM 40.6939 -101.2119 257° West 409 471 38,000  Level Denver Center
12:03PM 40.6697 -101.3531 257° West 412 474 38,000 -360 Level Denver Center
12:04PM 40.6450 -101.4933 257° West 411 473 37,300 -840 Descending Denver Center
12:05PM 40.6142 -101.6600 256° West 418 481 36,300 -960 Descending Denver Center
12:06PM 40.5892 -101.8047 257° West 424 488 35,400 -1,020 Descending Denver Center
12:07PM 40.5592 -101.9722 257° West 423 487 34,300 -720 Descending Denver Center
12:08PM 40.5317 -102.1183 256° West 430 495 34,000 -180 Descending Denver Center
12:09PM 40.5011 -102.2872 257° West 427 491 34,000  Level Denver Center
12:10PM 40.4742 -102.4336 256° West 430 495 34,000  Level Denver Center
12:11PM 40.4417 -102.6036 256° West 431 496 34,000 -300 Level Denver Center
12:12PM 40.4147 -102.7494 256° West 431 496 33,500 -1,620 Descending Denver Center
12:13PM 40.3814 -102.9189 256° West 431 496 30,700 -2,400 Descending Denver Center
12:14PM 40.3561 -103.0589 257° West 419 482 28,600 -2,040 Descending Denver Center
12:15PM 40.3292 -103.1950 255° West 407 468 26,600 -2,100 Descending Denver Center
12:16PM 40.2983 -103.3547 256° West 406 467 24,300 -2,160 Descending Denver Center
12:17PM 40.2708 -103.4931 255° West 394 453 22,200 -2,040 Descending Denver Center
12:18PM 40.2467 -103.6181 256° West 380 437 20,200 -1,980 Descending Denver Center
12:19PM 40.2194 -103.7589 256° West 366 421 18,200 -1,260 Descending Denver Center
12:20PM 40.2022 -103.8819 260° West 310 357 17,700 -780 Descending Denver Center
12:21PM 40.2133 -103.9933 277° West 310 357 16,600 -1,320 Descending Denver Center
12:23PM 40.2231 -104.1022 277° West 305 351 15,000 -1,260 Descending Denver Center
12:24PM 40.2350 -104.2114 278° West 287 330 14,100 -1,140 Descending Denver Center
12:25PM 40.2417 -104.2981 276° West 249 287 12,700 -1,380 Descending Denver Center
12:26PM 40.2511 -104.3919 278° West 243 280 11,300 -1,200 Descending Denver Center
12:27PM 40.2478 -104.4781 267° West 243 280 10,300 -1,020 Descending Denver Center
12:28PM 40.2200 -104.5631 247° West 236 272 9,300 -600 Descending Denver Center
12:29PM 40.1778 -104.6200 226° Southwest 231 266 9,100 -120 Descending Denver Center
12:30PM 40.1169 -104.6644 209° Southwest 232 267 9,100 -540 Level Denver Center
12:31PM 40.0558 -104.6789 190° South 228 262 8,100 -900 Descending Denver Center
12:32PM 39.9958 -104.6847 184° South 219 252 7,300 -840 Descending Denver Center
12:33PM 39.9444 -104.6864 181° South 178 205 6,400 -840 Descending Denver Center
12:34PM 39.9036 -104.6869 181° South 151 174 5,600 -780 Descending Denver Center
12:36PM 39.8617 -104.6732 North  Level Estimated
12:43PM 39.8617 -104.6732 North  Level Estimated
12:44PM 39.8617 -104.6732 North  Level Estimated